createdAt,value
2022-07-29T00:04:17.085Z,49.99
2022-07-29T00:09:21.246Z,49.64
2022-07-29T00:14:23.781Z,49.05
2022-07-29T00:19:26.366Z,48.63
2022-07-29T00:24:30.753Z,48.51
2022-07-29T00:29:34.718Z,49.38
2022-07-29T00:35:03.626Z,48.48
2022-07-29T00:40:09.435Z,48.85
2022-07-29T00:45:12.804Z,49.29
2022-07-29T00:50:15.905Z,48.96
2022-07-29T00:55:19.873Z,48.91
2022-07-29T01:00:25.541Z,49.65
2022-07-29T01:05:49.900Z,50.90
2022-07-29T01:10:55.111Z,51.56
2022-07-29T01:16:03.747Z,50.44
2022-07-29T01:21:29.510Z,50.46
2022-07-29T01:26:47.743Z,51.30
2022-07-29T01:32:00.640Z,51.92
2022-07-29T01:37:10.272Z,51.14
2022-07-29T01:42:17.620Z,50.69
2022-07-29T01:47:25.334Z,52.49
2022-07-29T01:52:33.444Z,52.44
2022-07-29T01:57:38.273Z,52.47
2022-07-29T02:02:44.560Z,50.73
2022-07-29T02:07:49.997Z,50.46
2022-07-29T02:12:52.570Z,52.20
2022-07-29T02:18:00.393Z,50.28
2022-07-29T02:23:04.238Z,50.50
2022-07-29T02:28:08.103Z,51.27
2022-07-29T02:33:16.157Z,51.16
2022-07-29T02:38:37.313Z,51.45
2022-07-29T02:43:42.505Z,52.40
2022-07-29T02:48:57.719Z,50.54
2022-07-29T02:54:07.775Z,51.68
2022-07-29T02:59:15.782Z,51.19
2022-07-29T03:04:21.378Z,51.60
2022-07-29T03:09:26.118Z,52.37
2022-07-29T03:14:29.342Z,52.16
2022-07-29T03:19:33.818Z,53.03
2022-07-29T03:24:37.748Z,52.79
2022-07-29T03:29:40.334Z,52.75
2022-07-29T03:34:47.711Z,52.76
2022-07-29T03:39:52.936Z,54.84
2022-07-29T03:44:57.662Z,54.16
2022-07-29T03:50:06.945Z,53.76
2022-07-29T03:55:14.125Z,52.74
2022-07-29T04:00:17.568Z,53.43
2022-07-29T04:05:21.562Z,53.53
2022-07-29T04:10:26.349Z,52.43
2022-07-29T04:15:34.386Z,52.75
2022-07-29T04:20:38.317Z,51.90
2022-07-29T04:25:41.583Z,51.08
2022-07-29T04:30:44.136Z,52.08
2022-07-29T04:35:50.466Z,51.79
2022-07-29T04:40:55.119Z,51.84
2022-07-29T04:45:58.889Z,51.24
2022-07-29T04:51:02.728Z,51.07
2022-07-29T04:56:05.741Z,52.17
2022-07-29T05:01:08.276Z,53.18
2022-07-29T05:06:12.208Z,50.87
2022-07-29T05:11:19.373Z,51.56
2022-07-29T05:16:24.010Z,53.24
2022-07-29T05:21:27.907Z,53.27
2022-07-29T05:26:30.509Z,52.51
2022-07-29T05:31:34.438Z,53.54
2022-07-29T05:36:38.235Z,52.13
2022-07-29T05:41:41.157Z,51.61
2022-07-29T05:46:43.698Z,51.55
2022-07-29T05:51:48.762Z,50.94
2022-07-29T05:56:51.287Z,51.82
2022-07-29T06:01:53.834Z,51.74
2022-07-29T06:06:57.714Z,53.38
2022-07-29T06:12:00.251Z,51.44
2022-07-29T06:17:02.851Z,51.00
2022-07-29T06:22:06.784Z,50.76
2022-07-29T06:27:09.624Z,52.73
2022-07-29T06:32:12.208Z,50.17
2022-07-29T06:37:16.144Z,51.01
2022-07-29T06:42:18.682Z,51.38
2022-07-29T06:47:21.115Z,51.36
2022-07-29T06:52:26.623Z,50.50
2022-07-29T06:57:29.585Z,50.36
2022-07-29T07:02:32.201Z,49.68
2022-07-29T07:07:36.345Z,49.49
2022-07-29T07:12:39.096Z,49.51
2022-07-29T07:17:41.628Z,49.79
2022-07-29T07:22:45.896Z,49.13
2022-07-29T07:27:48.796Z,49.43
2022-07-29T07:32:51.428Z,47.99
2022-07-29T07:37:55.928Z,49.42
2022-07-29T07:42:58.460Z,47.68
2022-07-29T07:48:01.189Z,46.57
2022-07-29T07:53:05.084Z,46.45
2022-07-29T07:58:07.518Z,45.27
2022-07-29T08:03:17.162Z,45.09
2022-07-29T08:08:21.195Z,45.12
2022-07-29T08:13:24.855Z,44.52
2022-07-29T08:18:28.413Z,45.06
2022-07-29T08:23:47.115Z,45.16
2022-07-29T08:28:52.054Z,44.92
2022-07-29T08:33:54.810Z,44.47
2022-07-29T08:38:58.779Z,44.05
2022-07-29T08:44:01.308Z,44.63
2022-07-29T08:49:04.161Z,43.05
2022-07-29T08:54:09.855Z,43.65
2022-07-29T08:59:13.259Z,42.69
2022-07-29T09:04:19.106Z,43.21
2022-07-29T09:09:23.700Z,43.52
2022-07-29T09:14:26.223Z,42.76
2022-07-29T09:19:32.343Z,42.02
2022-07-29T09:24:43.872Z,42.29
2022-07-29T09:29:48.706Z,41.76
2022-07-29T09:34:52.858Z,39.78
2022-07-29T09:39:59.500Z,39.65
2022-07-29T09:45:02.089Z,39.48
2022-07-29T09:50:04.945Z,39.33
2022-07-29T09:55:10.248Z,39.15
2022-07-29T10:00:20.174Z,38.43
2022-07-29T10:05:24.835Z,37.17
2022-07-29T10:10:30.559Z,37.30
2022-07-29T10:15:38.194Z,36.87
2022-07-29T10:20:41.803Z,36.66
2022-07-29T10:25:47.379Z,36.09
2022-07-29T10:30:53.487Z,35.81
2022-07-29T10:36:07.010Z,34.21
2022-07-29T10:41:32.424Z,31.67
2022-07-29T10:46:46.949Z,32.97
2022-07-29T10:51:58.560Z,30.54
2022-07-29T10:57:16.241Z,28.65
2022-07-29T11:02:45.072Z,32.61
2022-07-29T11:08:33.819Z,26.80
2022-07-29T11:13:55.984Z,28.07
2022-07-29T11:19:30.061Z,27.57
2022-07-29T11:24:35.146Z,28.67
2022-07-29T11:29:41.385Z,26.59
2022-07-29T11:34:46.017Z,27.05
2022-07-29T11:40:09.914Z,26.96
2022-07-29T11:45:43.266Z,28.42
2022-07-29T11:50:44.423Z,29.00
2022-07-29T11:55:51.663Z,30.93
2022-07-29T12:00:56.418Z,32.23
2022-07-29T12:05:59.142Z,31.25
2022-07-29T12:11:03.266Z,30.94
2022-07-29T12:16:07.680Z,30.07
2022-07-29T12:21:12.431Z,31.23
2022-07-29T12:26:25.301Z,32.21
2022-07-29T12:31:43.236Z,31.47
2022-07-29T12:36:48.020Z,31.07
2022-07-29T12:41:50.629Z,30.49
2022-07-29T12:47:04.927Z,29.86
2022-07-29T12:52:25.385Z,30.74
2022-07-29T12:57:29.236Z,30.81
2022-07-29T13:02:33.125Z,31.64
2022-07-29T13:07:53.999Z,31.52
2022-07-29T13:13:06.641Z,34.04
2022-07-29T13:18:31.998Z,35.09
2022-07-29T13:23:38.337Z,35.16
2022-07-29T13:28:44.067Z,36.05
2022-07-29T13:33:48.799Z,36.58
2022-07-29T13:38:51.425Z,35.08
2022-07-29T13:43:54.319Z,35.64
2022-07-29T13:48:58.240Z,35.59
2022-07-29T13:54:00.853Z,35.97
2022-07-29T13:59:03.342Z,36.51
2022-07-29T14:04:07.233Z,36.66
2022-07-29T14:09:09.960Z,37.14
2022-07-29T14:14:12.439Z,35.84
2022-07-29T14:19:16.264Z,35.32
2022-07-29T14:24:23.102Z,35.10
2022-07-29T14:29:37.497Z,36.82
2022-07-29T14:34:42.388Z,35.29
2022-07-29T14:39:50.905Z,35.17
2022-07-29T14:44:53.463Z,34.35
2022-07-29T14:49:57.325Z,34.07
2022-07-29T14:54:59.858Z,33.87
2022-07-29T15:00:02.709Z,34.49
2022-07-29T15:05:08.035Z,34.75
2022-07-29T15:10:10.984Z,34.41
2022-07-29T15:15:17.215Z,34.51
2022-07-29T15:20:22.148Z,33.27
2022-07-29T15:25:24.817Z,33.19
2022-07-29T15:30:33.376Z,35.09
2022-07-29T15:35:40.285Z,34.75
2022-07-29T15:40:44.494Z,34.14
2022-07-29T15:46:07.212Z,35.16
2022-07-29T15:51:11.091Z,33.47
2022-07-29T15:56:13.612Z,34.55
2022-07-29T16:01:16.323Z,35.09
2022-07-29T16:06:20.278Z,41.07
2022-07-29T16:11:22.842Z,41.47
2022-07-29T16:16:25.385Z,42.79
2022-07-29T16:21:29.474Z,42.62
2022-07-29T16:26:31.985Z,44.34
2022-07-29T16:31:34.543Z,44.30
2022-07-29T16:36:38.462Z,45.34
2022-07-29T16:41:41.029Z,47.13
2022-07-29T16:46:45.066Z,45.66
2022-07-29T16:51:48.895Z,47.02
2022-07-29T16:56:51.913Z,46.37
2022-07-29T17:01:54.437Z,45.02
2022-07-29T17:06:59.971Z,44.64
2022-07-29T17:12:03.592Z,45.88
2022-07-29T17:17:13.823Z,45.83
2022-07-29T17:22:20.634Z,45.11
2022-07-29T17:27:23.151Z,44.75
2022-07-29T17:32:25.822Z,44.79
2022-07-29T17:37:29.759Z,44.43
2022-07-29T17:42:32.239Z,43.86
2022-07-29T17:47:34.816Z,43.85
2022-07-29T17:52:39.309Z,42.82
2022-07-29T17:57:41.886Z,44.14
2022-07-29T18:02:44.421Z,43.24
2022-07-29T18:07:48.314Z,43.28
2022-07-29T18:12:50.843Z,44.25
2022-07-29T18:17:57.811Z,44.77
2022-07-29T18:23:02.503Z,45.01
2022-07-29T18:28:06.452Z,43.32
2022-07-29T18:33:21.668Z,43.52
2022-07-29T18:38:26.166Z,42.75
2022-07-29T18:43:28.691Z,42.52
2022-07-29T18:48:32.730Z,43.24
2022-07-29T18:53:36.911Z,42.82
2022-07-29T18:58:39.598Z,43.28
2022-07-29T19:03:42.071Z,44.75
2022-07-29T19:08:45.897Z,45.87
2022-07-29T19:13:48.419Z,45.88
2022-07-29T19:18:50.879Z,44.39
2022-07-29T19:24:01.759Z,43.88
2022-07-29T19:29:10.147Z,44.47
2022-07-29T19:34:13.119Z,45.26
2022-07-29T19:39:16.962Z,45.06
2022-07-29T19:44:19.538Z,44.26
2022-07-29T19:49:22.079Z,45.24
2022-07-29T19:54:26.841Z,46.28
2022-07-29T19:59:29.615Z,50.98
2022-07-29T20:04:32.228Z,51.67
2022-07-29T20:09:36.911Z,51.73
2022-07-29T20:14:39.356Z,50.03
2022-07-29T20:19:42.697Z,49.47
2022-07-29T20:24:46.813Z,49.26
2022-07-29T20:29:49.339Z,49.92
2022-07-29T20:34:51.836Z,51.18
2022-07-29T20:39:55.898Z,50.02
2022-07-29T20:44:58.732Z,49.15
2022-07-29T20:50:01.212Z,50.28
2022-07-29T20:55:05.808Z,50.64
2022-07-29T21:00:09.802Z,51.16
2022-07-29T21:05:12.324Z,51.06
2022-07-29T21:10:18.254Z,51.27
2022-07-29T21:15:21.774Z,51.26
2022-07-29T21:20:24.278Z,53.78
2022-07-29T21:25:28.213Z,54.51
2022-07-29T21:30:30.845Z,62.02
2022-07-29T21:36:06.646Z,66.73
2022-07-29T21:40:58.158Z,67.26
2022-07-29T21:46:01.918Z,65.87
2022-07-29T21:51:06.007Z,66.44
2022-07-29T21:56:14.421Z,67.60
2022-07-29T22:01:17.662Z,67.22
2022-07-29T22:06:20.164Z,67.13
2022-07-29T22:11:23.967Z,68.26
2022-07-29T22:16:26.557Z,71.24
2022-07-29T22:21:29.138Z,72.53
2022-07-29T22:26:33.321Z,74.49
2022-07-29T22:31:35.784Z,75.92
2022-07-29T22:36:38.331Z,76.42
2022-07-29T22:41:42.224Z,79.29
2022-07-29T22:46:44.825Z,80.09
2022-07-29T22:51:47.426Z,80.21
2022-07-29T22:56:51.225Z,82.70
2022-07-29T23:01:53.710Z,83.55
2022-07-29T23:06:56.232Z,85.96
2022-07-29T23:12:00.293Z,85.88
2022-07-29T23:17:03.129Z,91.34
2022-07-29T23:22:06.776Z,86.36
2022-07-29T23:27:10.561Z,85.68
2022-07-29T23:32:13.064Z,82.42
2022-07-29T23:37:15.660Z,81.33
2022-07-29T23:42:19.550Z,88.82
2022-07-29T23:47:22.034Z,91.03
2022-07-29T23:52:27.677Z,89.13
2022-07-29T23:57:32.957Z,87.81
